Time;durP1;ratioP1;P1;durP2;ratioP2;P2;SDS_P1;SDS_P2;PMS_P1;PMS_P2;Temp;Humidity;BMP_temperature;BMP_pressure;BME280_temperature;BME280_humidity;BME280_pressure;Samples;Min_cycle;Max_cycle;Signal;HPM_P1;HPM_P2
2024/02/10 00:00:36;;;;;;;11.70;5.17;;;10.40;99.90;;;;;;5012646;28;20034;-48
2024/02/10 00:03:02;;;;;;;9.83;4.53;;;10.40;99.90;;;;;;5012569;28;20117;-49
2024/02/10 00:05:28;;;;;;;10.10;4.77;;;10.40;99.90;;;;;;5012698;28;20053;-50
2024/02/10 00:07:55;;;;;;;9.67;4.47;;;10.40;99.90;;;;;;5012504;28;20482;-49
2024/02/10 00:10:25;;;;;;;9.60;4.40;;;10.40;99.90;;;;;;5012487;28;20037;-51
2024/02/10 00:12:51;;;;;;;9.10;4.60;;;10.30;99.90;;;;;;5012516;28;20045;-50
2024/02/10 00:15:20;;;;;;;11.20;4.50;;;10.30;99.90;;;;;;5012496;28;20026;-52
2024/02/10 00:17:45;;;;;;;10.40;4.40;;;10.30;99.90;;;;;;5011047;28;20033;-50
2024/02/10 00:20:15;;;;;;;8.13;3.70;;;10.30;99.90;;;;;;5012314;28;20025;-49
2024/02/10 00:22:43;;;;;;;9.03;3.97;;;10.30;99.90;;;;;;5012357;28;20037;-49
2024/02/10 00:25:09;;;;;;;9.70;3.43;;;10.20;99.90;;;;;;5012775;28;20073;-51
2024/02/10 00:27:36;;;;;;;6.13;3.00;;;10.30;99.90;;;;;;5012149;28;20077;-50
2024/02/10 00:30:03;;;;;;;7.00;2.70;;;10.20;99.90;;;;;;5012700;28;20433;-49
2024/02/10 00:32:29;;;;;;;5.17;2.10;;;10.20;99.90;;;;;;5012233;28;20037;-50
2024/02/10 00:34:54;;;;;;;7.13;2.30;;;10.10;99.90;;;;;;5012307;28;20554;-50
2024/02/10 00:37:20;;;;;;;5.93;2.50;;;10.00;99.90;;;;;;5012172;28;20037;-50
2024/02/10 00:39:46;;;;;;;5.67;2.73;;;10.00;99.90;;;;;;5010894;28;20076;-52
2024/02/10 00:42:13;;;;;;;5.50;2.53;;;10.00;99.90;;;;;;5012177;28;20056;-50
2024/02/10 00:44:39;;;;;;;6.03;2.53;;;9.90;99.90;;;;;;5012024;28;20040;-50
2024/02/10 00:47:09;;;;;;;6.23;2.60;;;9.90;99.90;;;;;;5011027;28;20034;-50
2024/02/10 00:49:35;;;;;;;5.83;2.30;;;10.00;99.90;;;;;;5011781;28;20057;-50
2024/02/10 00:52:00;;;;;;;6.20;2.20;;;9.90;99.90;;;;;;5011963;28;20026;-50
2024/02/10 00:54:29;;;;;;;6.60;2.07;;;9.90;99.90;;;;;;5011905;28;20033;-48
2024/02/10 00:56:56;;;;;;;3.38;1.58;;;9.90;99.90;;;;;;5011921;28;20038;-48
2024/02/10 00:59:22;;;;;;;3.83;2.03;;;9.90;99.90;;;;;;5011724;28;20026;-49
2024/02/10 01:01:51;;;;;;;4.60;1.80;;;9.90;99.90;;;;;;5012067;28;20074;-50
2024/02/10 01:04:21;;;;;;;5.38;1.73;;;9.80;99.90;;;;;;5011830;28;20026;-51
2024/02/10 01:06:48;;;;;;;5.07;1.65;;;9.80;99.90;;;;;;5012155;28;20022;-49
2024/02/10 01:09:14;;;;;;;4.03;1.60;;;9.80;99.90;;;;;;5011707;28;20030;-54
2024/02/10 01:11:43;;;;;;;5.33;2.03;;;9.70;99.90;;;;;;5011910;28;20631;-50
2024/02/10 01:14:12;;;;;;;3.07;1.47;;;9.70;99.90;;;;;;5011886;28;20032;-50
2024/02/10 01:16:43;;;;;;;5.20;1.87;;;9.70;99.90;;;;;;5011917;28;20026;-49
2024/02/10 01:19:09;;;;;;;4.40;1.90;;;9.80;99.90;;;;;;5015069;28;20103;-51
2024/02/10 01:21:38;;;;;;;5.10;1.83;;;9.80;99.90;;;;;;5015793;28;20034;-49
2024/02/10 01:24:04;;;;;;;4.33;1.77;;;9.60;99.90;;;;;;5015580;28;20030;-49
2024/02/10 01:26:30;;;;;;;3.30;1.70;;;9.60;99.90;;;;;;5015709;28;20022;-49
2024/02/10 01:28:56;;;;;;;4.07;1.90;;;9.60;99.90;;;;;;5015570;28;20048;-49
2024/02/10 01:31:24;;;;;;;3.17;1.30;;;9.60;99.90;;;;;;5015996;28;20069;-49
2024/02/10 01:33:51;;;;;;;3.67;1.50;;;9.70;99.90;;;;;;5015876;28;20059;-49
2024/02/10 01:36:19;;;;;;;3.00;1.27;;;9.60;99.90;;;;;;5016106;28;20034;-50
2024/02/10 01:38:46;;;;;;;6.73;2.30;;;9.70;99.90;;;;;;5015677;28;20058;-49
2024/02/10 01:41:13;;;;;;;4.53;1.77;;;9.70;99.90;;;;;;5016228;28;20034;-49
2024/02/10 01:43:43;;;;;;;5.43;2.13;;;9.80;99.90;;;;;;5017139;28;20479;-49
2024/02/10 01:46:12;;;;;;;6.57;2.40;;;9.80;99.90;;;;;;5016724;28;20049;-49
2024/02/10 01:48:39;;;;;;;4.78;2.60;;;9.80;99.90;;;;;;5016500;28;20030;-49
2024/02/10 01:51:05;;;;;;;9.80;2.77;;;9.90;99.90;;;;;;5016440;28;20094;-49
2024/02/10 01:53:32;;;;;;;6.37;3.33;;;9.90;99.90;;;;;;5016343;28;20061;-49
2024/02/10 01:55:59;;;;;;;7.83;3.70;;;9.90;99.90;;;;;;5015537;28;20041;-52
2024/02/10 01:58:25;;;;;;;8.33;3.33;;;9.90;99.90;;;;;;5014835;28;20044;-51
2024/02/10 02:00:51;;;;;;;7.37;3.27;;;9.90;99.90;;;;;;5014910;28;20025;-53
2024/02/10 02:03:17;;;;;;;6.63;3.40;;;9.90;99.90;;;;;;5014909;28;20030;-51
2024/02/10 02:05:43;;;;;;;10.33;3.77;;;9.90;99.90;;;;;;5014818;28;20025;-52
2024/02/10 02:08:09;;;;;;;7.17;3.50;;;9.90;99.90;;;;;;5014663;28;20087;-51
2024/02/10 02:10:35;;;;;;;14.07;4.60;;;10.00;99.90;;;;;;5014780;28;20037;-51
2024/02/10 02:13:01;;;;;;;12.40;4.37;;;10.00;99.90;;;;;;5013484;28;20049;-50
2024/02/10 02:15:30;;;;;;;10.80;4.43;;;10.00;99.90;;;;;;5014771;28;20054;-48
2024/02/10 02:17:58;;;;;;;10.35;3.90;;;10.10;99.90;;;;;;5014404;28;20177;-50
2024/02/10 02:20:25;;;;;;;6.93;3.42;;;10.10;99.90;;;;;;5014603;28;20518;-49
2024/02/10 02:22:52;;;;;;;7.43;3.60;;;10.20;99.90;;;;;;5014592;28;20092;-49
2024/02/10 02:25:18;;;;;;;9.80;3.67;;;10.20;99.90;;;;;;5014506;28;20028;-53
2024/02/10 02:27:44;;;;;;;7.90;3.50;;;10.20;99.90;;;;;;5013076;28;20409;-50
2024/02/10 02:30:10;;;;;;;9.83;3.90;;;10.20;99.90;;;;;;5012950;28;20125;-50
2024/02/10 02:32:36;;;;;;;7.87;3.40;;;10.20;99.90;;;;;;5014363;28;20030;-49
2024/02/10 02:35:09;;;;;;;6.60;3.03;;;10.30;99.90;;;;;;5014312;28;20505;-50
2024/02/10 02:37:42;;;;;;;6.73;3.17;;;10.30;99.90;;;;;;5014091;28;20454;-53
2024/02/10 02:40:14;;;;;;;5.73;2.80;;;10.20;99.90;;;;;;5014256;28;20034;-52
2024/02/10 02:42:40;;;;;;;9.00;3.87;;;10.20;99.90;;;;;;5014248;28;20065;-49
2024/02/10 02:45:08;;;;;;;8.47;3.37;;;10.30;99.90;;;;;;5014037;28;20106;-49
2024/02/10 02:47:37;;;;;;;6.20;3.00;;;10.30;99.90;;;;;;5013935;28;20472;-53
2024/02/10 02:50:04;;;;;;;5.10;2.80;;;10.30;99.90;;;;;;5012831;28;20033;-50
2024/02/10 02:52:30;;;;;;;6.93;2.63;;;10.30;99.90;;;;;;5014229;28;20068;-50
2024/02/10 02:54:59;;;;;;;6.50;2.20;;;10.30;99.90;;;;;;5013934;28;20464;-51
2024/02/10 02:57:25;;;;;;;4.05;2.30;;;10.30;99.90;;;;;;5013773;28;20508;-51
2024/02/10 02:59:51;;;;;;;4.93;2.47;;;10.30;99.90;;;;;;5013708;28;20133;-49
2024/02/10 03:02:17;;;;;;;3.53;2.00;;;10.30;99.90;;;;;;5013815;28;20041;-50
2024/02/10 03:04:43;;;;;;;4.20;2.17;;;10.40;99.90;;;;;;5013804;28;20382;-51
2024/02/10 03:07:09;;;;;;;6.47;2.40;;;10.30;99.90;;;;;;5013872;28;20550;-53
2024/02/10 03:09:35;;;;;;;5.40;2.33;;;10.30;99.90;;;;;;5013499;28;20075;-52
2024/02/10 03:12:01;;;;;;;4.93;2.20;;;10.40;99.90;;;;;;5014245;28;20037;-52
2024/02/10 03:14:28;;;;;;;4.90;1.80;;;10.40;99.90;;;;;;5013419;28;20057;-51
2024/02/10 03:16:54;;;;;;;3.37;1.83;;;10.40;99.90;;;;;;5013620;28;20045;-50
2024/02/10 03:19:20;;;;;;;3.80;1.60;;;10.40;99.90;;;;;;5013394;28;20076;-50
2024/02/10 03:21:46;;;;;;;4.50;2.30;;;10.40;99.90;;;;;;5013513;28;20437;-50
2024/02/10 03:24:12;;;;;;;4.77;1.57;;;10.40;99.90;;;;;;5013244;28;20045;-50
2024/02/10 03:26:37;;;;;;;4.53;2.20;;;10.40;99.90;;;;;;5013186;28;20047;-50
2024/02/10 03:29:05;;;;;;;3.57;1.67;;;10.40;99.90;;;;;;5013568;28;20042;-50
2024/02/10 03:31:31;;;;;;;5.03;1.90;;;10.40;99.90;;;;;;5013430;28;20034;-52
2024/02/10 03:33:57;;;;;;;4.47;1.87;;;10.40;99.90;;;;;;5013307;28;20026;-52
2024/02/10 03:36:26;;;;;;;1.97;1.40;;;10.40;99.90;;;;;;5013350;28;20509;-50
2024/02/10 03:39:03;;;;;;;4.05;1.88;;;10.40;99.90;;;;;;5013161;28;20034;-49
2024/02/10 03:41:28;;;;;;;4.10;1.80;;;10.30;99.90;;;;;;5012756;28;20054;-49
2024/02/10 03:43:54;;;;;;;2.67;1.40;;;10.30;99.90;;;;;;5012952;28;20507;-49
2024/02/10 03:46:21;;;;;;;2.73;1.63;;;10.30;99.90;;;;;;5013063;28;20026;-49
2024/02/10 03:48:52;;;;;;;2.90;1.70;;;10.30;99.90;;;;;;5012942;28;20061;-48
2024/02/10 03:51:18;;;;;;;3.07;1.60;;;10.30;99.90;;;;;;5012824;28;20029;-48
2024/02/10 03:53:43;;;;;;;2.73;1.53;;;10.20;99.90;;;;;;5012797;28;20502;-49
2024/02/10 03:56:10;;;;;;;2.63;1.60;;;10.20;99.90;;;;;;5012791;28;20034;-50
2024/02/10 03:58:41;;;;;;;3.37;1.60;;;10.20;99.90;;;;;;5012675;28;20030;-49
2024/02/10 04:01:13;;;;;;;1.83;1.30;;;10.20;99.90;;;;;;5012718;28;20034;-49
2024/02/10 04:03:45;;;;;;;3.13;1.50;;;10.10;99.90;;;;;;5012677;28;20394;-49
2024/02/10 04:06:15;;;;;;;6.37;1.53;;;10.10;99.90;;;;;;5011506;28;20030;-51
2024/02/10 04:08:47;;;;;;;2.00;1.30;;;10.00;99.90;;;;;;5012369;28;20120;-50
2024/02/10 04:11:13;;;;;;;4.03;1.63;;;10.00;99.90;;;;;;5012576;28;20040;-51
2024/02/10 04:13:40;;;;;;;2.93;1.60;;;10.00;99.90;;;;;;5012493;28;20045;-53
2024/02/10 04:16:11;;;;;;;2.13;1.37;;;10.00;99.90;;;;;;5012580;28;20128;-50
2024/02/10 04:18:37;;;;;;;5.63;1.93;;;9.90;99.90;;;;;;5012359;28;20034;-49
2024/02/10 04:21:04;;;;;;;2.47;1.40;;;9.90;99.90;;;;;;5012278;28;20041;-49
2024/02/10 04:23:32;;;;;;;3.67;1.73;;;9.80;99.90;;;;;;5012575;28;20475;-50
2024/02/10 04:25:58;;;;;;;3.13;1.30;;;9.80;99.90;;;;;;5012517;28;20025;-51
2024/02/10 04:28:24;;;;;;;2.57;1.30;;;9.80;99.90;;;;;;5011943;28;20501;-50
2024/02/10 04:30:53;;;;;;;2.57;1.13;;;9.80;99.90;;;;;;5012226;28;20052;-49
2024/02/10 04:33:19;;;;;;;1.60;1.13;;;9.80;99.90;;;;;;5012366;28;20034;-49
2024/02/10 04:35:45;;;;;;;3.37;1.13;;;9.80;99.90;;;;;;5012271;28;20073;-49
2024/02/10 04:38:11;;;;;;;3.37;1.20;;;9.70;99.90;;;;;;5012081;28;20061;-50
2024/02/10 04:40:37;;;;;;;3.93;1.27;;;9.80;99.90;;;;;;5011008;28;20026;-51
2024/02/10 04:43:03;;;;;;;2.20;1.33;;;9.70;99.90;;;;;;5012309;28;20438;-49
2024/02/10 04:45:31;;;;;;;2.40;1.23;;;9.70;99.90;;;;;;5012183;28;20042;-49
2024/02/10 04:47:57;;;;;;;2.77;1.10;;;9.70;99.90;;;;;;5010860;28;20057;-49
2024/02/10 04:50:23;;;;;;;4.00;1.07;;;9.70;99.90;;;;;;5011966;28;20030;-51
2024/02/10 04:52:50;;;;;;;2.30;1.20;;;9.70;99.90;;;;;;5011357;28;20041;-52
2024/02/10 04:55:15;;;;;;;2.97;1.37;;;9.60;99.90;;;;;;5011972;28;20052;-50
2024/02/10 04:57:42;;;;;;;1.73;1.13;;;9.50;99.90;;;;;;5011789;28;20482;-50
2024/02/10 05:00:10;;;;;;;2.47;1.40;;;9.60;99.90;;;;;;5012078;28;20026;-52
2024/02/10 05:02:37;;;;;;;2.50;1.33;;;9.50;99.90;;;;;;5012052;28;20109;-50
2024/02/10 05:05:04;;;;;;;2.10;1.03;;;9.50;99.90;;;;;;5011939;28;20112;-52
2024/02/10 05:07:30;;;;;;;5.50;1.30;;;9.50;99.90;;;;;;5011921;28;20031;-49
2024/02/10 05:10:00;;;;;;;2.47;1.33;;;9.50;99.90;;;;;;5011905;28;20084;-49
2024/02/10 05:12:26;;;;;;;3.17;1.50;;;9.50;99.90;;;;;;5011929;28;20081;-49
2024/02/10 05:14:52;;;;;;;2.53;1.20;;;9.50;99.90;;;;;;5011942;28;20037;-51
2024/02/10 05:17:19;;;;;;;3.13;1.50;;;9.40;99.90;;;;;;5011845;28;20471;-49
2024/02/10 05:19:44;;;;;;;4.23;1.10;;;9.50;99.90;;;;;;5011714;28;20117;-50
2024/02/10 05:22:13;;;;;;;2.47;1.37;;;9.40;99.90;;;;;;5011929;28;20057;-52
2024/02/10 05:24:43;;;;;;;2.83;1.50;;;9.40;99.90;;;;;;5011830;28;20041;-50
2024/02/10 05:27:08;;;;;;;3.47;1.35;;;9.40;99.90;;;;;;5011780;28;20044;-52
2024/02/10 05:29:35;;;;;;;2.70;1.30;;;9.40;99.90;;;;;;5011539;28;20101;-50
2024/02/10 05:32:04;;;;;;;2.93;1.40;;;9.40;99.90;;;;;;5011780;28;20040;-50
2024/02/10 05:34:29;;;;;;;2.10;1.30;;;9.40;99.90;;;;;;5011730;28;20122;-53
2024/02/10 05:37:00;;;;;;;3.23;1.37;;;9.30;99.90;;;;;;5011764;28;20092;-49
2024/02/10 05:39:26;;;;;;;4.37;1.50;;;9.30;99.90;;;;;;5011542;28;20081;-50
2024/02/10 05:41:59;;;;;;;2.83;1.60;;;9.30;99.90;;;;;;5011710;28;20478;-53
2024/02/10 05:44:26;;;;;;;2.00;1.10;;;9.40;99.90;;;;;;5011648;28;20437;-49
2024/02/10 05:46:52;;;;;;;4.10;1.50;;;9.40;99.90;;;;;;5011788;28;20034;-50
2024/02/10 05:49:21;;;;;;;5.30;1.30;;;9.40;99.90;;;;;;5011336;28;20176;-51
2024/02/10 05:51:48;;;;;;;3.78;1.42;;;9.40;99.90;;;;;;5011783;28;20030;-52
2024/02/10 05:54:14;;;;;;;3.43;1.57;;;9.30;99.90;;;;;;5010183;28;20079;-49
2024/02/10 05:56:43;;;;;;;3.13;1.63;;;9.30;99.90;;;;;;5011475;28;20028;-50
2024/02/10 05:59:08;;;;;;;2.60;1.40;;;9.30;99.90;;;;;;5011200;28;20395;-50
2024/02/10 06:01:35;;;;;;;2.57;1.40;;;9.30;99.90;;;;;;5011697;28;20026;-49
2024/02/10 06:04:05;;;;;;;2.40;1.30;;;9.20;99.90;;;;;;5011558;28;20030;-50
2024/02/10 06:06:30;;;;;;;;;;;9.20;99.90;;;;;;5015567;28;20030;-50
2024/02/10 06:08:56;;;;;;;2.90;1.57;;;9.20;99.90;;;;;;5014732;28;19916;-49
2024/02/10 06:11:25;;;;;;;3.67;1.40;;;9.10;99.90;;;;;;5014798;28;20042;-49
2024/02/10 06:13:51;;;;;;;4.87;1.67;;;9.10;99.90;;;;;;5014821;28;20096;-49
2024/02/10 06:16:21;;;;;;;3.27;1.50;;;9.10;99.90;;;;;;5014757;28;20088;-49
2024/02/10 06:18:49;;;;;;;6.17;1.60;;;9.10;99.90;;;;;;5014493;28;20129;-50
2024/02/10 06:21:15;;;;;;;5.83;1.70;;;9.10;99.90;;;;;;5014698;28;20390;-50
2024/02/10 06:23:42;;;;;;;2.37;1.33;;;9.20;99.90;;;;;;5013222;28;20121;-49
2024/02/10 06:26:10;;;;;;;4.17;1.57;;;9.20;99.90;;;;;;5014619;28;20033;-50
2024/02/10 06:28:37;;;;;;;5.53;1.90;;;9.20;99.90;;;;;;5013017;28;20045;-50
2024/02/10 06:31:03;;;;;;;3.87;1.70;;;9.20;99.90;;;;;;5014462;28;20041;-49
2024/02/10 06:33:28;;;;;;;4.27;1.80;;;9.20;99.90;;;;;;5013175;28;20503;-49
2024/02/10 06:35:58;;;;;;;3.17;1.50;;;9.10;99.90;;;;;;5014442;28;20030;-52
2024/02/10 06:38:24;;;;;;;3.03;1.80;;;9.00;99.90;;;;;;5014043;28;20034;-51
2024/02/10 06:40:50;;;;;;;4.60;1.83;;;9.10;99.90;;;;;;5014160;28;20123;-51
2024/02/10 06:43:17;;;;;;;2.80;1.63;;;9.10;99.90;;;;;;5014255;28;20502;-49
2024/02/10 06:45:43;;;;;;;3.87;1.80;;;9.00;99.90;;;;;;5014230;28;20391;-50
2024/02/10 06:48:11;;;;;;;2.23;1.37;;;9.00;99.90;;;;;;5014098;28;20026;-49
2024/02/10 06:50:38;;;;;;;4.43;1.88;;;9.00;99.90;;;;;;5014117;28;20080;-49
2024/02/10 06:53:06;;;;;;;3.17;1.70;;;9.00;99.90;;;;;;5013927;28;20038;-49
2024/02/10 06:55:33;;;;;;;11.70;5.13;;;8.90;99.90;;;;;;5014185;28;20113;-49
2024/02/10 06:58:02;;;;;;;4.23;2.60;;;8.90;99.90;;;;;;5013732;28;20045;-49
2024/02/10 07:00:30;;;;;;;3.53;1.47;;;9.00;99.90;;;;;;5012625;28;20030;-50
2024/02/10 07:02:56;;;;;;;3.30;1.42;;;9.00;99.90;;;;;;5013982;28;20038;-49
2024/02/10 07:05:25;;;;;;;4.43;1.90;;;9.00;99.90;;;;;;5013785;28;20471;-50
2024/02/10 07:07:52;;;;;;;3.90;1.95;;;9.00;99.90;;;;;;5012392;28;20086;-49
2024/02/10 07:10:22;;;;;;;4.43;1.80;;;9.00;99.90;;;;;;5013794;28;20497;-50
2024/02/10 07:12:50;;;;;;;2.63;1.53;;;9.00;99.90;;;;;;5013896;28;20034;-49
2024/02/10 07:15:18;;;;;;;3.57;1.63;;;9.00;99.90;;;;;;5012950;28;20030;-50
2024/02/10 07:17:46;;;;;;;3.37;1.70;;;8.90;99.90;;;;;;5013429;28;20402;-50
2024/02/10 07:20:21;;;;;;;3.57;1.90;;;9.00;99.90;;;;;;5013489;28;20026;-49
2024/02/10 07:22:49;;;;;;;4.83;2.00;;;9.00;99.90;;;;;;5013510;28;20033;-50
2024/02/10 07:25:35;;;;;;;3.27;1.97;;;9.00;99.90;;;;;;5013654;28;20096;-49
2024/02/10 07:28:01;;;;;;;3.33;2.10;;;9.00;99.90;;;;;;5013266;28;20040;-50
2024/02/10 07:30:28;;;;;;;5.43;2.10;;;9.10;99.90;;;;;;5013327;28;20398;-50
2024/02/10 07:33:03;;;;;;;3.70;1.90;;;9.10;99.90;;;;;;5013325;28;20446;-49
2024/02/10 07:35:29;;;;;;;3.57;1.87;;;9.20;99.90;;;;;;5013330;28;20042;-50
2024/02/10 07:37:55;;;;;;;4.33;1.90;;;9.20;99.90;;;;;;5012967;28;20034;-51
2024/02/10 07:40:20;;;;;;;4.20;2.03;;;9.20;99.90;;;;;;5013561;28;20022;-50
2024/02/10 07:42:46;;;;;;;5.87;2.30;;;9.30;99.90;;;;;;5013162;28;20041;-53
2024/02/10 07:45:12;;;;;;;4.87;2.10;;;9.30;99.90;;;;;;5013141;28;20060;-51
2024/02/10 07:47:37;;;;;;;4.47;2.13;;;9.40;99.90;;;;;;5012936;28;20029;-50
2024/02/10 07:50:03;;;;;;;3.80;1.90;;;9.40;99.90;;;;;;5012928;28;20470;-54
2024/02/10 07:52:30;;;;;;;4.37;1.90;;;9.50;99.90;;;;;;5013180;28;20382;-50
2024/02/10 07:54:56;;;;;;;3.87;2.10;;;9.60;99.90;;;;;;5011749;28;20057;-53
2024/02/10 07:57:23;;;;;;;4.33;2.20;;;9.70;99.90;;;;;;5012942;28;20038;-50
2024/02/10 07:59:50;;;;;;;3.87;1.83;;;9.70;99.90;;;;;;5012718;28;20080;-52
2024/02/10 08:02:25;;;;;;;15.97;7.70;;;9.80;99.90;;;;;;5012933;28;20057;-52
2024/02/10 08:04:56;;;;;;;15.30;7.43;;;9.90;99.90;;;;;;5012850;28;20022;-49
2024/02/10 08:07:23;;;;;;;2.37;1.40;;;10.00;99.90;;;;;;5012818;28;20038;-50
2024/02/10 08:09:51;;;;;;;3.00;1.67;;;10.10;99.90;;;;;;5012673;28;20025;-50
2024/02/10 08:12:24;;;;;;;3.40;1.90;;;10.30;99.90;;;;;;5012753;28;20092;-51
2024/02/10 08:14:51;;;;;;;3.47;1.80;;;10.30;99.90;;;;;;5011709;28;20042;-50
2024/02/10 08:17:20;;;;;;;3.13;1.47;;;10.40;99.90;;;;;;5012993;28;20034;-50
2024/02/10 08:19:47;;;;;;;2.40;1.40;;;10.50;99.90;;;;;;5013162;28;20048;-50
2024/02/10 08:22:13;;;;;;;3.80;1.50;;;10.60;99.90;;;;;;5011760;28;20033;-50
2024/02/10 08:24:40;;;;;;;3.57;1.63;;;10.70;99.90;;;;;;5011688;28;20399;-50
2024/02/10 08:27:10;;;;;;;3.53;1.60;;;10.80;99.90;;;;;;5013179;28;20460;-50
2024/02/10 08:29:35;;;;;;;3.03;1.50;;;10.80;99.90;;;;;;5012062;28;20030;-51
2024/02/10 08:32:02;;;;;;;3.40;1.70;;;10.80;99.90;;;;;;5013446;28;20030;-48
2024/02/10 08:34:31;;;;;;;4.60;1.73;;;10.90;99.90;;;;;;5013695;28;20029;-50
2024/02/10 08:36:58;;;;;;;2.92;1.70;;;10.90;99.90;;;;;;4995693;28;20026;-49
2024/02/10 08:39:23;;;;;;;2.73;1.40;;;11.00;99.90;;;;;;5013702;28;20422;-48
2024/02/10 08:41:50;;;;;;;3.23;1.30;;;11.00;99.90;;;;;;5012697;28;20034;-50
2024/02/10 08:44:16;;;;;;;3.57;1.80;;;11.00;99.90;;;;;;5012146;28;20026;-50
2024/02/10 08:46:42;;;;;;;3.70;1.83;;;11.10;99.90;;;;;;5012277;28;20064;-54
2024/02/10 08:49:11;;;;;;;2.53;1.30;;;11.20;99.90;;;;;;5011955;28;20030;-51
2024/02/10 08:51:37;;;;;;;4.93;1.23;;;11.30;99.90;;;;;;5012167;28;20103;-52
2024/02/10 08:54:07;;;;;;;3.23;1.43;;;11.40;99.90;;;;;;5011925;28;20443;-50
2024/02/10 08:56:38;;;;;;;8.13;3.37;;;11.40;99.90;;;;;;5012171;28;20053;-50
2024/02/10 08:59:05;;;;;;;7.57;4.17;;;11.50;99.90;;;;;;5011818;28;20165;-52
2024/02/10 09:01:31;;;;;;;2.30;1.30;;;11.70;99.90;;;;;;5012191;28;20037;-51
2024/02/10 09:03:57;;;;;;;2.50;1.27;;;11.90;99.90;;;;;;5010776;28;20029;-50
2024/02/10 09:06:22;;;;;;;2.00;1.10;;;12.00;99.90;;;;;;5011931;28;20026;-51
2024/02/10 09:08:50;;;;;;;3.30;1.20;;;12.00;99.90;;;;;;5011864;28;20092;-50
2024/02/10 09:11:17;;;;;;;2.58;1.30;;;12.00;99.90;;;;;;5011959;28;20064;-50
2024/02/10 09:13:44;;;;;;;3.05;1.10;;;12.10;99.90;;;;;;5011910;28;20034;-51
2024/02/10 09:16:11;;;;;;;2.58;1.40;;;12.10;99.90;;;;;;5011952;28;20529;-52
2024/02/10 09:18:37;;;;;;;2.05;1.10;;;12.20;99.90;;;;;;5011749;28;20672;-51
2024/02/10 09:21:02;;;;;;;2.15;1.20;;;12.20;99.90;;;;;;5011612;28;20053;-51
2024/02/10 09:23:29;;;;;;;3.63;1.52;;;12.50;99.90;;;;;;5010582;28;20033;-51
2024/02/10 09:25:55;;;;;;;2.60;1.30;;;12.70;99.90;;;;;;5011856;28;20037;-51
2024/02/10 09:28:24;;;;;;;2.20;1.23;;;13.10;99.90;;;;;;5011489;28;20044;-49
2024/02/10 09:30:49;;;;;;;1.65;1.10;;;13.70;99.90;;;;;;5011745;28;20099;-50
2024/02/10 09:33:24;;;;;;;1.95;1.00;;;14.40;99.90;;;;;;5011648;28;20033;-50
2024/02/10 09:35:51;;;;;;;3.17;1.05;;;15.00;99.90;;;;;;5011733;28;20073;-49
2024/02/10 09:38:20;;;;;;;1.10;0.70;;;15.50;99.90;;;;;;5011870;28;20045;-51
2024/02/10 09:40:46;;;;;;;1.73;0.98;;;16.10;99.90;;;;;;5015539;28;20290;-53
2024/02/10 09:43:15;;;;;;;4.88;1.33;;;16.20;99.90;;;;;;5015325;28;20076;-52
2024/02/10 09:45:45;;;;;;;1.73;0.80;;;16.20;99.90;;;;;;5015328;28;20028;-49
2024/02/10 09:48:15;;;;;;;1.88;0.88;;;16.30;99.90;;;;;;5015127;28;20038;-53
2024/02/10 09:50:41;;;;;;;1.17;0.70;;;16.70;99.90;;;;;;5015150;28;20029;-52
2024/02/10 09:53:06;;;;;;;3.70;1.17;;;17.20;99.90;;;;;;5015145;28;20037;-50
2024/02/10 09:55:32;;;;;;;0.98;0.63;;;17.70;99.90;;;;;;5015182;28;20120;-51
2024/02/10 09:58:04;;;;;;;2.78;1.10;;;17.90;99.90;;;;;;5015050;28;20042;-54
2024/02/10 10:00:31;;;;;;;2.35;0.80;;;17.90;99.90;;;;;;5014080;28;20513;-56
2024/02/10 10:02:59;;;;;;;1.73;0.70;;;18.20;99.90;;;;;;5014981;28;20085;-51
2024/02/10 10:05:29;;;;;;;2.25;0.90;;;18.80;99.90;;;;;;5014964;28;20029;-54
2024/02/10 10:07:55;;;;;;;1.08;0.77;;;19.00;99.90;;;;;;5014797;28;20100;-52
2024/02/10 10:10:22;;;;;;;1.45;0.80;;;19.20;99.90;;;;;;5014871;28;20042;-53
2024/02/10 10:12:49;;;;;;;1.92;0.90;;;19.50;99.90;;;;;;5014908;28;20034;-54
2024/02/10 10:15:14;;;;;;;0.98;0.60;;;19.60;99.90;;;;;;5014748;28;20029;-50
2024/02/10 10:17:40;;;;;;;1.05;0.60;;;19.80;99.90;;;;;;5014581;28;20100;-51
2024/02/10 10:20:09;;;;;;;2.17;0.80;;;19.10;99.90;;;;;;5013443;28;20442;-52
2024/02/10 10:22:36;;;;;;;2.10;0.85;;;18.80;99.90;;;;;;5014803;28;20030;-51
2024/02/10 10:25:02;;;;;;;2.28;0.70;;;19.10;99.90;;;;;;5014693;28;20112;-51
2024/02/10 10:27:29;;;;;;;1.35;0.85;;;19.20;99.90;;;;;;5029094;23;20050;-59
2024/02/10 10:29:55;;;;;;;2.25;0.70;;;19.40;99.90;;;;;;5014837;28;20116;-59
2024/02/10 10:32:22;;;;;;;1.40;0.70;;;19.50;99.90;;;;;;5014827;28;20061;-59
2024/02/10 10:34:48;;;;;;;1.80;1.00;;;19.50;99.90;;;;;;5014939;28;20066;-59
2024/02/10 10:37:16;;;;;;;1.42;0.60;;;19.80;99.90;;;;;;5014643;28;20072;-59
2024/02/10 10:39:45;;;;;;;1.02;0.75;;;19.50;99.90;;;;;;5014362;28;20034;-57
2024/02/10 10:42:16;;;;;;;4.03;0.60;;;19.20;99.90;;;;;;5014390;28;20511;-59
2024/02/10 10:44:42;;;;;;;1.85;0.73;;;18.90;99.90;;;;;;5014669;28;20018;-59
2024/02/10 10:47:10;;;;;;;2.63;0.80;;;19.10;99.90;;;;;;5014598;28;20486;-59
2024/02/10 10:49:36;;;;;;;0.75;0.60;;;19.30;99.90;;;;;;5013675;28;20029;-58
2024/02/10 10:52:03;;;;;;;2.03;1.08;;;19.40;99.90;;;;;;5014242;28;20029;-58
2024/02/10 10:54:42;;;;;;;2.05;0.88;;;19.20;99.90;;;;;;5015227;28;20071;-58
2024/02/10 10:57:19;;;;;;;0.60;0.60;;;19.30;99.90;;;;;;5014663;28;20049;-58
2024/02/10 10:59:54;;;;;;;1.27;0.70;;;19.30;99.90;;;;;;5014160;28;20041;-59
2024/02/10 11:02:22;;;;;;;1.75;0.85;;;18.80;99.90;;;;;;5014471;28;20137;-59
2024/02/10 11:04:47;;;;;;;0.77;0.70;;;19.00;99.90;;;;;;5014436;28;20041;-59
2024/02/10 11:07:13;;;;;;;1.65;0.80;;;18.40;99.90;;;;;;5014123;28;20029;-59
2024/02/10 11:09:52;;;;;;;2.35;0.90;;;18.50;99.90;;;;;;5014017;28;20030;-56
2024/02/10 11:12:18;;;;;;;0.95;0.63;;;18.60;99.90;;;;;;5014197;28;20030;-57
2024/02/10 11:14:52;;;;;;;1.10;0.70;;;18.90;99.90;;;;;;5013805;28;20033;-60
2024/02/10 11:17:17;;;;;;;0.98;0.60;;;19.00;99.90;;;;;;5013872;28;20375;-59
2024/02/10 11:20:16;;;;;;;1.55;0.60;;;18.70;99.90;;;;;;5013691;28;20032;-60
2024/02/10 11:22:45;;;;;;;2.92;0.73;;;18.50;99.90;;;;;;5013765;28;20033;-59
2024/02/10 11:25:12;;;;;;;1.42;0.73;;;18.70;99.90;;;;;;5013708;28;20046;-60
2024/02/10 11:27:42;;;;;;;1.02;0.57;;;18.70;99.90;;;;;;5013290;28;20046;-60
2024/02/10 11:30:08;;;;;;;1.15;0.77;;;18.50;99.90;;;;;;5013529;28;20034;-58
2024/02/10 11:32:34;;;;;;;0.68;0.65;;;18.00;99.90;;;;;;5013473;28;20041;-59
2024/02/10 11:35:00;;;;;;;1.75;0.80;;;17.70;99.90;;;;;;5012162;28;20509;-57
2024/02/10 11:37:30;;;;;;;0.90;0.60;;;17.30;99.90;;;;;;5013279;28;20034;-59
2024/02/10 11:39:56;;;;;;;1.63;0.70;;;17.00;99.90;;;;;;5013305;28;20050;-59
2024/02/10 11:42:29;;;;;;;1.75;0.95;;;16.60;99.90;;;;;;5013292;28;20029;-59
2024/02/10 11:44:58;;;;;;;1.48;0.90;;;16.20;99.90;;;;;;5013177;28;20399;-59
2024/02/10 11:47:28;;;;;;;3.00;0.93;;;16.10;99.90;;;;;;5013283;28;20076;-59
2024/02/10 11:49:55;;;;;;;1.13;0.90;;;16.00;99.90;;;;;;5013152;28;20025;-56
2024/02/10 11:52:22;;;;;;;1.80;1.08;;;15.90;99.90;;;;;;5013258;28;20034;-59
2024/02/10 11:54:48;;;;;;;1.67;0.80;;;15.80;99.90;;;;;;5013124;28;20061;-59
2024/02/10 11:57:14;;;;;;;1.95;0.98;;;15.80;99.90;;;;;;5012853;28;20065;-57
2024/02/10 11:59:41;;;;;;;1.80;0.90;;;15.70;99.90;;;;;;5012825;28;20450;-59
2024/02/10 12:02:11;;;;;;;1.75;0.90;;;15.40;99.90;;;;;;5012721;28;20044;-59
2024/02/10 12:04:36;;;;;;;1.58;1.00;;;15.50;99.90;;;;;;5013017;28;20117;-59
2024/02/10 12:07:02;;;;;;;1.95;1.00;;;15.60;99.90;;;;;;5012878;28;20160;-58
2024/02/10 12:09:28;;;;;;;1.55;0.85;;;15.70;99.90;;;;;;5012687;28;20034;-59
2024/02/10 12:11:59;;;;;;;1.40;1.02;;;15.70;99.90;;;;;;5012737;28;20112;-59
2024/02/10 12:14:26;;;;;;;1.60;1.00;;;15.50;99.90;;;;;;5012743;28;20040;-58
2024/02/10 12:16:53;;;;;;;2.45;0.90;;;15.30;99.90;;;;;;5012666;28;20040;-59
2024/02/10 12:19:21;;;;;;;2.13;1.00;;;15.20;99.90;;;;;;5012463;28;20041;-57
2024/02/10 12:21:48;;;;;;;2.50;0.93;;;15.30;99.90;;;;;;5011593;28;20061;-59
2024/02/10 12:24:16;;;;;;;1.63;0.90;;;15.30;99.90;;;;;;5012474;28;20083;-57
2024/02/10 12:26:42;;;;;;;1.85;1.00;;;15.20;99.90;;;;;;5012717;28;20065;-59
2024/02/10 12:29:10;;;;;;;2.88;1.05;;;15.40;99.90;;;;;;5012470;28;20100;-59
2024/02/10 12:31:39;;;;;;;2.05;0.90;;;15.60;99.90;;;;;;5012772;28;20157;-59
2024/02/10 12:34:05;;;;;;;1.73;0.90;;;15.70;99.90;;;;;;5012380;28;20044;-59
2024/02/10 12:36:33;;;;;;;2.00;1.00;;;16.10;99.90;;;;;;5012417;28;20053;-59
2024/02/10 12:38:59;;;;;;;2.97;0.90;;;16.30;99.90;;;;;;5012009;28;20113;-56
2024/02/10 12:41:25;;;;;;;2.80;1.13;;;16.40;99.90;;;;;;5012416;28;20021;-59
2024/02/10 12:43:53;;;;;;;2.50;1.08;;;16.70;99.90;;;;;;5012373;28;20041;-59
2024/02/10 12:46:19;;;;;;;2.13;0.90;;;17.00;99.90;;;;;;5012438;28;20109;-57
2024/02/10 12:48:44;;;;;;;1.20;0.80;;;17.10;99.90;;;;;;5012148;28;20037;-58
2024/02/10 12:51:10;;;;;;;1.42;0.82;;;17.30;99.90;;;;;;5010998;28;20041;-60